Time;durP1;ratioP1;P1;durP2;ratioP2;P2;SDS_P1;SDS_P2;PMS_P1;PMS_P2;Temp;Humidity;BMP_temperature;BMP_pressure;BME280_temperature;BME280_humidity;BME280_pressure;Samples;Min_cycle;Max_cycle;Signal;HPM_P1;HPM_P2
2023/10/16 00:02:22;;;;;;;6.57;3.30;;;3.70;99.90;;;;;;5010109;28;20210;-33
2023/10/16 00:04:49;;;;;;;4.00;3.10;;;3.70;99.90;;;;;;4988024;28;20191;-36
2023/10/16 00:07:20;;;;;;;3.27;2.73;;;3.80;99.90;;;;;;5011806;28;20175;-38
2023/10/16 00:09:47;;;;;;;5.70;3.20;;;3.80;99.90;;;;;;5017143;28;20294;-36
2023/10/16 00:12:19;;;;;;;4.00;3.10;;;4.00;99.90;;;;;;4996263;28;20184;-33
2023/10/16 00:14:46;;;;;;;3.87;2.77;;;4.00;99.90;;;;;;4992970;28;20180;-37
2023/10/16 00:17:14;;;;;;;3.50;2.77;;;4.10;99.90;;;;;;5024447;28;20179;-35
2023/10/16 00:19:46;;;;;;;3.10;2.70;;;4.10;99.90;;;;;;5016049;28;20200;-38
2023/10/16 00:22:20;;;;;;;3.73;2.80;;;4.00;99.90;;;;;;4995660;28;20179;-39
2023/10/16 00:24:46;;;;;;;3.27;2.57;;;4.00;99.90;;;;;;4995868;28;20178;-37
2023/10/16 00:27:14;;;;;;;3.63;2.70;;;4.00;99.90;;;;;;4995492;28;20179;-34
2023/10/16 00:29:44;;;;;;;5.93;2.70;;;3.90;99.90;;;;;;5017051;28;20199;-37
2023/10/16 00:32:16;;;;;;;4.17;2.63;;;3.90;99.90;;;;;;4996220;28;20188;-33
2023/10/16 00:34:42;;;;;;;4.23;2.90;;;3.80;99.90;;;;;;4995548;28;20198;-34
2023/10/16 00:37:10;;;;;;;6.17;2.80;;;3.70;99.90;;;;;;4994686;28;20171;-38
2023/10/16 00:39:37;;;;;;;4.47;2.40;;;3.70;99.90;;;;;;5011419;28;20290;-32
2023/10/16 00:42:09;;;;;;;4.03;2.73;;;3.60;99.90;;;;;;4992839;28;20195;-37
2023/10/16 00:44:34;;;;;;;3.23;2.30;;;3.60;99.90;;;;;;5026602;28;20189;-37
2023/10/16 00:47:03;;;;;;;3.43;2.50;;;3.50;99.90;;;;;;5013455;28;20269;-35
2023/10/16 00:49:38;;;;;;;4.40;2.87;;;3.50;99.90;;;;;;5014105;28;20221;-33
2023/10/16 00:52:05;;;;;;;4.40;2.87;;;3.40;99.90;;;;;;5005119;28;20198;-32
2023/10/16 00:54:38;;;;;;;3.27;2.77;;;3.40;99.90;;;;;;4992965;28;20194;-33
2023/10/16 00:57:08;;;;;;;4.70;2.73;;;3.50;99.90;;;;;;5006762;28;20242;-33
2023/10/16 00:59:38;;;;;;;3.50;3.03;;;3.50;99.90;;;;;;5011404;28;20199;-32
2023/10/16 01:02:15;;;;;;;3.50;2.73;;;3.60;99.90;;;;;;5011629;28;20176;-31
2023/10/16 01:04:41;;;;;;;3.63;2.53;;;3.60;99.90;;;;;;5028077;28;20183;-33
2023/10/16 01:07:09;;;;;;;3.90;2.80;;;3.50;99.90;;;;;;5011932;28;20171;-37
2023/10/16 01:09:35;;;;;;;3.10;2.40;;;3.50;99.90;;;;;;5037735;28;20211;-34
2023/10/16 01:12:12;;;;;;;3.67;2.60;;;3.50;99.90;;;;;;5011131;28;20183;-31
2023/10/16 01:14:38;;;;;;;4.27;3.10;;;3.50;99.90;;;;;;5009800;28;20187;-33
2023/10/16 01:17:12;;;;;;;5.70;3.47;;;3.40;99.90;;;;;;5025434;28;20215;-32
2023/10/16 01:19:43;;;;;;;2.83;2.47;;;3.40;99.90;;;;;;5012264;28;20202;-35
2023/10/16 01:22:13;;;;;;;3.87;3.03;;;3.40;99.90;;;;;;5009371;28;20167;-35
2023/10/16 01:24:46;;;;;;;3.10;2.57;;;3.40;99.90;;;;;;5011189;28;20183;-36
2023/10/16 01:27:26;;;;;;;4.17;2.70;;;3.40;99.90;;;;;;5008427;28;20199;-31
2023/10/16 01:29:57;;;;;;;5.07;3.30;;;3.30;99.90;;;;;;5000390;28;20203;-31
2023/10/16 01:32:22;;;;;;;3.90;2.87;;;3.30;99.90;;;;;;5009379;28;20191;-35
2023/10/16 01:34:50;;;;;;;4.43;2.70;;;3.20;99.90;;;;;;5010166;28;20191;-37
2023/10/16 01:37:18;;;;;;;3.13;2.40;;;3.20;99.90;;;;;;4994188;28;20257;-36
2023/10/16 01:39:48;;;;;;;3.47;2.47;;;3.10;99.90;;;;;;5011712;28;20211;-34
2023/10/16 01:42:15;;;;;;;4.37;2.60;;;3.00;99.90;;;;;;5011117;28;20183;-31
2023/10/16 01:44:45;;;;;;;4.67;2.43;;;3.00;99.90;;;;;;4992546;28;20179;-32
2023/10/16 01:47:15;;;;;;;4.17;2.30;;;3.00;99.90;;;;;;5021223;28;20183;-33
2023/10/16 01:49:49;;;;;;;5.07;2.50;;;3.00;99.90;;;;;;5002546;28;20207;-32
2023/10/16 01:52:15;;;;;;;3.63;2.60;;;3.00;99.90;;;;;;5010711;28;20214;-31
2023/10/16 01:54:47;;;;;;;2.57;2.37;;;3.00;99.90;;;;;;4996404;28;20183;-30
2023/10/16 01:57:14;;;;;;;2.80;2.27;;;3.00;99.90;;;;;;5006637;28;20186;-31
2023/10/16 01:59:42;;;;;;;6.57;2.77;;;2.90;99.90;;;;;;5023444;28;20211;-35
2023/10/16 02:02:09;;;;;;;3.53;2.77;;;2.90;99.90;;;;;;5014162;28;20711;-31
2023/10/16 02:04:37;;;;;;;3.17;2.70;;;2.90;99.90;;;;;;4993317;28;20183;-31
2023/10/16 02:07:04;;;;;;;3.23;2.53;;;3.00;99.90;;;;;;5014185;28;20187;-37
2023/10/16 02:09:31;;;;;;;3.53;2.30;;;2.90;99.90;;;;;;5007041;28;20211;-33
2023/10/16 02:12:01;;;;;;;5.23;2.40;;;2.90;99.90;;;;;;5009633;28;20189;-35
2023/10/16 02:14:27;;;;;;;3.30;2.50;;;3.00;99.90;;;;;;4992854;28;20181;-33
2023/10/16 02:16:53;;;;;;;3.03;2.13;;;3.00;99.90;;;;;;5022068;28;20306;-34
2023/10/16 02:19:19;;;;;;;2.43;2.23;;;3.00;99.90;;;;;;5015049;28;20290;-35
2023/10/16 02:21:45;;;;;;;2.73;1.97;;;3.10;99.90;;;;;;5024354;28;20205;-33
2023/10/16 02:24:11;;;;;;;4.20;2.90;;;3.00;99.90;;;;;;5009353;28;20258;-37
2023/10/16 02:26:55;;;;;;;3.07;2.47;;;3.00;99.90;;;;;;5007035;28;20195;-31
2023/10/16 02:29:28;;;;;;;3.23;2.30;;;3.00;99.90;;;;;;5013187;28;20207;-32
2023/10/16 02:31:54;;;;;;;2.73;2.07;;;3.00;99.90;;;;;;5017372;28;20195;-32
2023/10/16 02:34:24;;;;;;;3.10;2.23;;;2.90;99.90;;;;;;4994075;28;20241;-33
2023/10/16 02:36:56;;;;;;;3.50;2.43;;;2.80;99.90;;;;;;4992448;28;20209;-31
2023/10/16 02:39:35;;;;;;;3.50;2.67;;;2.80;99.90;;;;;;5020945;28;20199;-34
2023/10/16 02:42:12;;;;;;;4.57;2.70;;;2.80;99.90;;;;;;5010338;28;20217;-31
2023/10/16 02:44:45;;;;;;;4.10;2.60;;;2.80;99.90;;;;;;4992225;28;20187;-31
2023/10/16 02:47:19;;;;;;;3.13;2.20;;;2.80;99.90;;;;;;5024896;28;20183;-35
2023/10/16 02:49:48;;;;;;;2.83;2.07;;;2.80;99.90;;;;;;5009654;28;20202;-30
2023/10/16 02:52:19;;;;;;;2.83;2.40;;;2.90;99.90;;;;;;5011830;28;20225;-32
2023/10/16 02:54:46;;;;;;;4.13;2.90;;;2.80;99.90;;;;;;4995299;28;20190;-31
2023/10/16 02:57:14;;;;;;;5.30;2.33;;;2.90;99.90;;;;;;5008771;28;20536;-34
2023/10/16 02:59:43;;;;;;;3.23;2.40;;;2.80;99.90;;;;;;5009004;28;20213;-35
2023/10/16 03:02:17;;;;;;;3.97;2.50;;;2.80;99.90;;;;;;5016888;28;20193;-34
2023/10/16 03:04:49;;;;;;;3.13;2.37;;;2.80;99.90;;;;;;5026005;28;20258;-30
2023/10/16 03:07:14;;;;;;;3.10;2.70;;;2.80;99.90;;;;;;5006302;28;20184;-30
2023/10/16 03:09:43;;;;;;;2.60;2.40;;;2.80;99.90;;;;;;5005070;23;20250;-29
2023/10/16 03:12:09;;;;;;;2.90;2.40;;;2.80;99.90;;;;;;4973795;28;20181;-29
2023/10/16 03:14:45;;;;;;;3.10;2.40;;;2.80;99.90;;;;;;4973876;28;20211;-29
2023/10/16 03:17:19;;;;;;;2.67;2.30;;;2.80;99.90;;;;;;4993952;28;20808;-29
2023/10/16 03:19:48;;;;;;;3.80;2.70;;;2.80;99.90;;;;;;4974501;28;20220;-29
2023/10/16 03:22:15;;;;;;;2.67;2.43;;;2.80;99.90;;;;;;4974475;28;20180;-30
2023/10/16 03:24:43;;;;;;;3.53;2.80;;;2.70;99.90;;;;;;4954036;28;20192;-29
2023/10/16 03:27:09;;;;;;;4.80;2.60;;;2.60;99.90;;;;;;4970158;28;20260;-29
2023/10/16 03:29:35;;;;;;;2.93;2.43;;;2.40;99.90;;;;;;4952322;28;20293;-30
2023/10/16 03:32:02;;;;;;;5.23;2.90;;;2.30;99.90;;;;;;4969017;28;20185;-30
2023/10/16 03:34:31;;;;;;;4.23;2.87;;;2.30;99.90;;;;;;4968774;28;20187;-29
2023/10/16 03:37:03;;;;;;;2.80;2.50;;;2.30;99.90;;;;;;4969332;28;20207;-29
2023/10/16 03:39:31;;;;;;;3.10;2.80;;;2.30;99.90;;;;;;4968903;28;20269;-30
2023/10/16 03:42:09;;;;;;;4.10;2.53;;;2.30;99.90;;;;;;4989200;28;20208;-29
2023/10/16 03:44:42;;;;;;;3.40;2.63;;;2.40;99.90;;;;;;4989475;28;20197;-29
2023/10/16 03:47:10;;;;;;;2.97;2.67;;;2.30;99.90;;;;;;4980008;28;20199;-30
2023/10/16 03:49:39;;;;;;;3.73;2.97;;;2.20;99.90;;;;;;4992803;28;20293;-30
2023/10/16 03:52:07;;;;;;;2.43;2.23;;;2.20;99.90;;;;;;4982817;28;20648;-30
2023/10/16 03:54:39;;;;;;;3.10;2.57;;;2.20;99.90;;;;;;4981589;28;20185;-29
2023/10/16 03:57:11;;;;;;;3.67;3.00;;;2.30;99.90;;;;;;4968007;28;20287;-30
2023/10/16 03:59:42;;;;;;;3.17;2.53;;;2.20;99.90;;;;;;4966185;28;20235;-30
2023/10/16 04:02:16;;;;;;;3.83;3.00;;;2.20;99.90;;;;;;4967680;28;20199;-30
2023/10/16 04:04:41;;;;;;;4.43;3.00;;;2.20;99.90;;;;;;4975059;28;20182;-30
2023/10/16 04:07:10;;;;;;;4.20;3.30;;;2.20;99.90;;;;;;4973576;28;20200;-29
2023/10/16 04:09:40;;;;;;;4.93;3.30;;;2.30;99.90;;;;;;4956345;28;20227;-29
2023/10/16 04:12:07;;;;;;;3.47;3.13;;;2.20;99.90;;;;;;4967870;28;20226;-29
2023/10/16 04:14:55;;;;;;;5.13;3.50;;;2.20;99.90;;;;;;4977403;28;20215;-30
2023/10/16 04:17:25;;;;;;;3.53;3.00;;;2.20;99.90;;;;;;4968640;28;20221;-29
2023/10/16 04:19:59;;;;;;;4.33;3.00;;;2.20;99.90;;;;;;4973293;28;20295;-30
2023/10/16 04:22:25;;;;;;;3.87;3.10;;;2.20;99.90;;;;;;4988242;28;20188;-29
2023/10/16 04:24:54;;;;;;;9.77;3.90;;;2.20;99.90;;;;;;4985071;28;20225;-29
2023/10/16 04:27:35;;;;;;;6.23;3.47;;;2.20;99.90;;;;;;4973794;28;20748;-28
2023/10/16 04:37:55;;;;;;;6.17;3.50;;;2.30;99.90;;;;;;4974857;28;20214;-30
2023/10/16 04:42:39;;;;;;;11.33;5.53;;;2.30;99.90;;;;;;4973501;28;20205;-29
2023/10/16 04:43:19;;;;;;;7.77;4.90;;;2.20;99.90;;;;;;4989179;28;20188;-30
2023/10/16 04:46:54;;;;;;;5.53;4.23;;;2.30;99.90;;;;;;4956769;28;20248;-29
2023/10/16 04:49:14;;;;;;;12.87;4.20;;;2.30;99.90;;;;;;4972562;28;20220;-29
2023/10/16 04:51:38;;;;;;;14.17;4.80;;;2.30;99.90;;;;;;4977014;28;20192;-29
2023/10/16 04:54:13;;;;;;;5.57;3.37;;;2.20;99.90;;;;;;4973806;28;20198;-30
2023/10/16 04:57:08;;;;;;;12.37;4.07;;;2.30;99.90;;;;;;4980813;28;20218;-30
2023/10/16 04:59:37;;;;;;;5.77;3.70;;;2.20;99.90;;;;;;4965329;28;20216;-30
2023/10/16 05:05:32;;;;;;;15.23;4.37;;;2.10;99.90;;;;;;4970671;28;20235;-30
2023/10/16 05:07:53;;;;;;;12.67;4.10;;;2.10;99.90;;;;;;4972832;28;20191;-30
2023/10/16 05:10:51;;;;;;;6.57;3.40;;;2.00;99.90;;;;;;4980944;28;20233;-30
2023/10/16 05:13:24;;;;;;;11.73;4.53;;;1.90;99.90;;;;;;4972566;28;20191;-30
2023/10/16 05:15:54;;;;;;;4.73;3.17;;;2.00;99.90;;;;;;4957177;28;20219;-30
2023/10/16 05:18:42;;;;;;;18.23;3.73;;;1.90;99.90;;;;;;4977568;28;20186;-30
2023/10/16 05:21:51;;;;;;;5.63;3.00;;;1.90;99.90;;;;;;4983299;28;20181;-30
2023/10/16 06:16:04;;;;;;;6.43;3.90;;;1.60;99.90;;;;;;4985815;28;20216;-30
2023/10/16 06:18:30;;;;;;;7.47;5.47;;;1.60;99.90;;;;;;4955644;28;20205;-30
2023/10/16 06:21:00;;;;;;;10.27;7.60;;;1.80;99.90;;;;;;4955791;28;20277;-30
2023/10/16 06:23:28;;;;;;;6.30;4.23;;;1.80;99.90;;;;;;4968768;28;20234;-29
2023/10/16 06:25:55;;;;;;;11.43;6.97;;;1.80;99.90;;;;;;4970665;28;20251;-30
2023/10/16 06:28:21;;;;;;;11.10;4.77;;;1.80;99.90;;;;;;4971137;28;20208;-30
2023/10/16 06:30:47;;;;;;;14.87;5.63;;;1.80;99.90;;;;;;4969988;28;20187;-30
2023/10/16 06:33:14;;;;;;;5.87;4.03;;;1.80;99.90;;;;;;4987383;28;20195;-29
2023/10/16 06:35:41;;;;;;;18.27;4.83;;;1.70;99.90;;;;;;4981292;28;20207;-29
2023/10/16 06:38:11;;;;;;;30.60;7.67;;;1.70;99.90;;;;;;4962674;28;20200;-29
2023/10/16 06:40:40;;;;;;;7.83;5.30;;;1.60;99.90;;;;;;4954668;28;20287;-29
2023/10/16 06:43:09;;;;;;;25.53;5.90;;;1.70;99.90;;;;;;4970449;28;20198;-30
2023/10/16 06:45:42;;;;;;;15.67;4.87;;;1.70;99.90;;;;;;4954074;28;20187;-30
2023/10/16 06:48:15;;;;;;;23.87;5.03;;;1.70;99.90;;;;;;4970428;28;20232;-30
2023/10/16 06:50:54;;;;;;;7.70;4.57;;;1.70;99.90;;;;;;4971430;28;20219;-30
2023/10/16 06:53:22;;;;;;;9.13;4.40;;;1.70;99.90;;;;;;4970413;28;20198;-30
2023/10/16 06:55:51;;;;;;;4.93;3.97;;;1.90;99.90;;;;;;4970327;28;20258;-30
2023/10/16 06:58:20;;;;;;;8.83;4.70;;;1.80;99.90;;;;;;4963710;28;20266;-30
2023/10/16 07:00:47;;;;;;;7.67;3.97;;;2.00;99.90;;;;;;4962876;28;20184;-30
2023/10/16 07:03:13;;;;;;;6.57;4.03;;;2.10;99.90;;;;;;4971375;28;20206;-30
2023/10/16 07:05:42;;;;;;;6.07;3.80;;;2.20;99.90;;;;;;4970815;28;20193;-30
2023/10/16 07:08:10;;;;;;;5.30;4.03;;;2.30;99.90;;;;;;4970592;28;20252;-29
2023/10/16 07:10:41;;;;;;;9.87;4.00;;;2.30;99.90;;;;;;4971295;28;20214;-30
2023/10/16 07:13:08;;;;;;;4.70;3.57;;;2.30;99.90;;;;;;4955266;28;20203;-30
2023/10/16 07:15:34;;;;;;;5.73;4.07;;;2.30;99.90;;;;;;4970076;28;20230;-30
2023/10/16 07:18:05;;;;;;;5.53;3.23;;;2.30;99.90;;;;;;4955870;28;20185;-30
2023/10/16 07:20:52;;;;;;;11.40;3.83;;;2.40;99.90;;;;;;4984062;28;20233;-30
2023/10/16 07:23:20;;;;;;;4.90;3.83;;;2.40;99.90;;;;;;4957895;28;20191;-30
2023/10/16 07:25:47;;;;;;;5.90;4.50;;;2.40;99.90;;;;;;4995640;28;20184;-29
2023/10/16 07:28:18;;;;;;;6.50;4.33;;;2.40;99.90;;;;;;4980119;28;20188;-31
2023/10/16 07:30:44;;;;;;;6.30;5.00;;;2.50;99.90;;;;;;4971429;28;20270;-30
2023/10/16 07:33:16;;;;;;;6.03;4.90;;;2.60;99.90;;;;;;4971013;28;20185;-30
2023/10/16 07:35:45;;;;;;;5.47;4.70;;;2.60;99.90;;;;;;4970574;28;20208;-31
2023/10/16 07:38:21;;;;;;;9.43;5.63;;;2.70;99.90;;;;;;4973094;28;20191;-30
2023/10/16 07:40:52;;;;;;;7.27;5.67;;;2.80;99.90;;;;;;4966117;28;20234;-30
2023/10/16 07:43:28;;;;;;;8.37;5.67;;;2.80;99.90;;;;;;4978945;28;20185;-30
2023/10/16 07:46:38;;;;;;;6.20;5.30;;;2.70;99.90;;;;;;4973983;28;20199;-30
2023/10/16 07:48:52;;;;;;;5.87;4.70;;;2.80;99.90;;;;;;4977235;28;20293;-30
2023/10/16 07:51:20;;;;;;;6.33;4.70;;;2.90;99.90;;;;;;4989956;28;20199;-30
2023/10/16 07:53:48;;;;;;;6.10;4.90;;;3.00;99.90;;;;;;4958188;28;20203;-29
2023/10/16 07:58:54;;;;;;;5.70;4.17;;;3.40;99.90;;;;;;4983438;28;20352;-31
2023/10/16 08:01:36;;;;;;;5.93;3.70;;;3.30;99.90;;;;;;4979642;28;20185;-30
2023/10/16 08:04:05;;;;;;;5.43;3.47;;;3.30;99.90;;;;;;4991594;28;20190;-30
2023/10/16 08:06:32;;;;;;;6.63;3.90;;;3.30;99.90;;;;;;4971078;28;20187;-30
2023/10/16 08:11:42;;;;;;;7.73;5.53;;;3.50;99.90;;;;;;4973844;28;20242;-30
2023/10/16 08:14:13;;;;;;;5.10;4.47;;;3.60;99.90;;;;;;4974441;28;20189;-30
2023/10/16 08:16:39;;;;;;;5.57;4.27;;;3.80;99.90;;;;;;4981883;28;20243;-30
2023/10/16 08:19:23;;;;;;;5.17;4.53;;;3.90;99.90;;;;;;4964761;28;20204;-30
2023/10/16 08:21:50;;;;;;;5.33;4.63;;;4.00;99.90;;;;;;4958796;28;20181;-30
2023/10/16 08:24:21;;;;;;;6.83;4.67;;;4.20;99.90;;;;;;4972671;28;20265;-30
2023/10/16 08:26:48;;;;;;;5.00;4.50;;;4.40;99.90;;;;;;4973769;28;20185;-30
2023/10/16 08:31:41;;;;;;;5.17;4.67;;;4.60;99.90;;;;;;4973052;28;20192;-30
2023/10/16 08:34:19;;;;;;;6.23;4.50;;;4.60;99.90;;;;;;4957777;28;20189;-30
2023/10/16 08:36:52;;;;;;;4.80;4.40;;;4.70;99.90;;;;;;4982183;28;20212;-30
2023/10/16 08:39:19;;;;;;;5.43;4.43;;;4.90;99.90;;;;;;4986192;28;20258;-31
2023/10/16 08:41:51;;;;;;;5.87;4.40;;;5.10;99.90;;;;;;4974545;28;20192;-30
2023/10/16 08:44:18;;;;;;;6.03;4.40;;;5.30;99.90;;;;;;4973423;28;20243;-30
2023/10/16 08:47:11;;;;;;;4.33;3.93;;;5.50;99.90;;;;;;4973474;28;20418;-30
2023/10/16 08:49:38;;;;;;;4.80;4.20;;;5.70;99.90;;;;;;4961761;28;20279;-30
2023/10/16 08:52:08;;;;;;;4.83;4.43;;;5.80;99.90;;;;;;4957003;28;20224;-31
2023/10/16 08:54:53;;;;;;;6.17;4.40;;;6.00;99.90;;;;;;4981163;28;20289;-31
2023/10/16 08:57:25;;;;;;;6.40;4.80;;;6.20;99.90;;;;;;4980982;28;20206;-31
2023/10/16 08:59:52;;;;;;;4.70;4.10;;;6.30;99.90;;;;;;4964870;28;20203;-31
2023/10/16 09:02:23;;;;;;;5.20;4.10;;;6.30;99.90;;;;;;4960088;28;20222;-31
2023/10/16 09:04:49;;;;;;;4.17;3.77;;;6.50;99.90;;;;;;4977059;28;20282;-31
2023/10/16 09:07:18;;;;;;;4.87;3.90;;;6.70;99.90;;;;;;4964559;28;20273;-31
2023/10/16 09:09:48;;;;;;;6.33;4.30;;;6.80;99.90;;;;;;5051076;23;20268;-26
2023/10/16 09:12:24;;;;;;;6.93;4.07;;;7.00;99.90;;;;;;5011597;28;20221;-26
2023/10/16 09:14:51;;;;;;;5.87;4.63;;;7.10;99.90;;;;;;5010387;28;20186;-27
2023/10/16 09:17:19;;;;;;;5.00;4.50;;;7.30;99.90;;;;;;5002968;28;20210;-26
2023/10/16 09:19:49;;;;;;;4.53;4.13;;;7.30;99.90;;;;;;4991557;28;20222;-26
2023/10/16 09:22:17;;;;;;;5.03;4.33;;;7.30;99.90;;;;;;5002531;28;20273;-26
2023/10/16 09:24:46;;;;;;;5.37;4.50;;;7.40;99.90;;;;;;5011576;28;20190;-26
2023/10/16 09:27:30;;;;;;;5.13;4.50;;;7.40;99.90;;;;;;5011194;28;20670;-26
2023/10/16 09:30:00;;;;;;;7.47;5.10;;;7.50;99.90;;;;;;5009271;28;20202;-26
2023/10/16 09:32:27;;;;;;;5.30;4.30;;;7.60;99.90;;;;;;5007582;28;20191;-26
2023/10/16 09:34:53;;;;;;;4.57;4.17;;;7.60;99.90;;;;;;4991645;28;20645;-26
2023/10/16 09:37:29;;;;;;;5.23;4.40;;;7.60;99.90;;;;;;5007357;28;20210;-26
2023/10/16 09:40:00;;;;;;;5.57;4.47;;;7.70;99.90;;;;;;5012485;28;20293;-26
2023/10/16 09:42:27;;;;;;;5.70;4.60;;;7.80;99.90;;;;;;5003138;28;20685;-26
2023/10/16 09:44:56;;;;;;;6.83;5.10;;;7.90;99.90;;;;;;5008172;28;20186;-26
2023/10/16 09:47:26;;;;;;;4.63;4.20;;;8.00;99.90;;;;;;4999204;28;20184;-26
2023/10/16 09:49:59;;;;;;;5.03;4.53;;;8.20;99.90;;;;;;5002952;28;20214;-26
2023/10/16 09:52:30;;;;;;;5.27;4.20;;;8.30;99.90;;;;;;4978887;28;20190;-26
2023/10/16 09:55:00;;;;;;;4.40;3.93;;;8.30;99.90;;;;;;4999195;28;20221;-26
2023/10/16 09:57:30;;;;;;;4.40;4.00;;;8.40;99.90;;;;;;5007029;28;20219;-26
2023/10/16 10:01:06;;;;;;;3.97;3.63;;;8.50;99.90;;;;;;5000311;28;20205;-26
2023/10/16 10:02:58;;;;;;;6.83;4.40;;;8.60;99.90;;;;;;4993319;28;20198;-26
2023/10/16 10:05:34;;;;;;;5.37;4.03;;;8.70;99.90;;;;;;5011696;28;20190;-26
2023/10/16 10:08:15;;;;;;;5.53;4.17;;;8.70;99.90;;;;;;4992730;28;20180;-27
2023/10/16 10:14:26;;;;;;;4.73;3.80;;;9.00;99.90;;;;;;4988317;28;20188;-26
2023/10/16 10:16:58;;;;;;;4.83;4.33;;;9.10;99.90;;;;;;5003126;28;20204;-27
2023/10/16 10:19:32;;;;;;;4.27;3.80;;;9.30;99.90;;;;;;5000079;28;20210;-26
2023/10/16 10:22:17;;;;;;;4.83;4.17;;;9.40;99.90;;;;;;4998763;28;20263;-26
2023/10/16 10:25:25;;;;;;;5.47;3.87;;;9.60;99.90;;;;;;5010466;28;20186;-27
2023/10/16 10:27:54;;;;;;;5.03;3.50;;;9.80;99.90;;;;;;4980531;28;20726;-26
2023/10/16 10:30:27;;;;;;;4.93;4.20;;;10.00;99.90;;;;;;5010709;28;20275;-26
2023/10/16 10:32:55;;;;;;;3.50;3.20;;;10.10;99.90;;;;;;5003153;28;20183;-27
2023/10/16 10:35:29;;;;;;;4.50;3.43;;;10.30;99.90;;;;;;5002921;28;20180;-27
2023/10/16 10:38:17;;;;;;;3.40;3.00;;;10.50;99.90;;;;;;5002860;28;20218;-27
2023/10/16 10:41:14;;;;;;;4.63;3.37;;;10.60;99.90;;;;;;5010348;28;20230;-27
2023/10/16 10:43:58;;;;;;;4.17;3.77;;;10.80;99.90;;;;;;4985133;28;20271;-27
2023/10/16 10:46:25;;;;;;;4.97;3.73;;;10.90;99.90;;;;;;5007454;28;20274;-27
2023/10/16 10:48:54;;;;;;;5.10;2.80;;;10.90;99.90;;;;;;5007037;28;20270;-27
2023/10/16 10:51:21;;;;;;;3.40;2.63;;;11.00;99.90;;;;;;4992593;28;20183;-27
2023/10/16 10:53:55;;;;;;;3.40;3.10;;;11.20;99.90;;;;;;5005181;28;20185;-27
2023/10/16 10:56:21;;;;;;;3.90;2.20;;;11.40;99.90;;;;;;5003117;28;20218;-27
2023/10/16 10:58:49;;;;;;;2.27;1.70;;;11.60;99.90;;;;;;5009987;28;20209;-27
2023/10/16 11:01:28;;;;;;;2.67;2.00;;;11.80;99.90;;;;;;5000147;28;20181;-27
2023/10/16 11:03:55;;;;;;;2.47;1.90;;;11.90;99.90;;;;;;5000962;28;20276;-27
2023/10/16 11:06:40;;;;;;;3.53;1.80;;;12.10;99.90;;;;;;4993472;28;20191;-27
2023/10/16 11:09:18;;;;;;;1.90;1.70;;;12.20;99.90;;;;;;4998787;28;20218;-27
2023/10/16 11:11:50;;;;;;;2.70;1.80;;;12.20;99.90;;;;;;5004923;28;20217;-26
2023/10/16 11:14:17;;;;;;;2.93;1.50;;;12.40;99.90;;;;;;4993748;28;20233;-28
2023/10/16 11:16:45;;;;;;;2.17;1.67;;;12.60;99.90;;;;;;4996211;28;20210;-27
2023/10/16 11:19:11;;;;;;;3.40;2.33;;;12.80;99.90;;;;;;5008084;28;20218;-27
2023/10/16 11:21:47;;;;;;;3.73;2.00;;;12.90;99.90;;;;;;5004447;28;20188;-27
2023/10/16 11:24:16;;;;;;;2.63;1.87;;;12.90;99.90;;;;;;4978399;28;20179;-27
2023/10/16 11:26:45;;;;;;;2.30;1.90;;;13.10;99.90;;;;;;4995959;28;20179;-28
2023/10/16 11:29:33;;;;;;;2.00;1.50;;;13.20;99.90;;;;;;5008026;28;20206;-27
2023/10/16 11:32:06;;;;;;;3.30;1.80;;;13.30;99.90;;;;;;5003892;28;20176;-27
2023/10/16 11:34:50;;;;;;;3.17;1.70;;;13.40;99.90;;;;;;4984828;28;20274;-27
2023/10/16 11:37:21;;;;;;;2.77;1.73;;;13.50;99.90;;;;;;4997061;28;20211;-27
2023/10/16 11:39:48;;;;;;;1.93;1.73;;;13.60;99.90;;;;;;5022262;28;20221;-27
2023/10/16 11:42:14;;;;;;;2.10;1.63;;;13.70;99.90;;;;;;5003972;28;20266;-27
2023/10/16 11:44:42;;;;;;;5.83;3.47;;;13.80;99.90;;;;;;4989778;28;20183;-27
2023/10/16 11:47:16;;;;;;;11.17;6.43;;;13.80;99.90;;;;;;4993458;28;20601;-27
2023/10/16 11:49:53;;;;;;;2.43;1.77;;;13.90;99.90;;;;;;5004720;28;20424;-27
2023/10/16 11:52:19;;;;;;;2.27;1.60;;;14.00;99.90;;;;;;5004847;28;20198;-27
2023/10/16 11:54:46;;;;;;;2.40;1.20;;;14.10;99.90;;;;;;4998256;28;20233;-28
2023/10/16 11:57:16;;;;;;;2.13;1.60;;;14.20;99.90;;;;;;5002253;28;20214;-27
2023/10/16 11:59:42;;;;;;;2.73;1.10;;;14.20;99.90;;;;;;5013136;28;20214;-27
2023/10/16 12:02:11;;;;;;;2.10;1.33;;;14.30;99.90;;;;;;4990380;28;20262;-27
2023/10/16 12:04:39;;;;;;;2.90;1.53;;;14.40;99.90;;;;;;5005032;28;20184;-26
2023/10/16 12:07:05;;;;;;;1.73;1.30;;;14.40;99.90;;;;;;5006070;28;20183;-27
2023/10/16 12:09:51;;;;;;;3.60;1.40;;;14.40;99.90;;;;;;5000069;28;20225;-27
2023/10/16 12:12:20;;;;;;;1.93;1.40;;;14.50;99.90;;;;;;4998230;28;20184;-27
2023/10/16 12:14:50;;;;;;;2.50;1.50;;;14.60;99.90;;;;;;4992939;28;20187;-27
2023/10/16 12:17:20;;;;;;;3.00;1.60;;;14.70;99.90;;;;;;4983800;28;20242;-27
2023/10/16 12:19:47;;;;;;;2.70;1.33;;;14.70;99.90;;;;;;4992376;28;20250;-27
2023/10/16 12:22:15;;;;;;;2.07;1.40;;;14.70;99.90;;;;;;4990974;28;20184;-27
2023/10/16 12:24:43;;;;;;;2.47;1.27;;;14.50;99.90;;;;;;4989896;28;20199;-28
2023/10/16 12:27:09;;;;;;;1.57;1.10;;;14.60;99.90;;;;;;4975933;28;20184;-27
2023/10/16 12:29:35;;;;;;;2.60;1.20;;;14.70;99.90;;;;;;4994470;28;20208;-27
2023/10/16 12:32:03;;;;;;;2.67;1.50;;;14.90;99.90;;;;;;4992235;28;20261;-27
2023/10/16 12:34:33;;;;;;;2.27;1.40;;;15.10;99.90;;;;;;4975837;28;20202;-26
2023/10/16 12:37:06;;;;;;;2.93;1.60;;;15.30;99.90;;;;;;4991052;28;20211;-27
2023/10/16 12:39:35;;;;;;;2.67;1.70;;;15.10;99.90;;;;;;4998496;28;20196;-27
2023/10/16 12:42:06;;;;;;;4.00;1.60;;;15.00;99.90;;;;;;4985092;28;20187;-27
2023/10/16 12:44:33;;;;;;;3.30;1.80;;;15.10;99.90;;;;;;4992493;28;20180;-27
2023/10/16 12:46:59;;;;;;;2.60;1.50;;;15.10;99.90;;;;;;5003327;28;20210;-27
2023/10/16 12:49:25;;;;;;;2.20;1.70;;;15.20;99.90;;;;;;5002428;28;20672;-28
2023/10/16 12:51:51;;;;;;;2.00;1.80;;;15.40;99.90;;;;;;5001889;28;20199;-27
2023/10/16 12:54:19;;;;;;;3.63;1.77;;;15.30;99.90;;;;;;4996683;28;20180;-28
2023/10/16 12:56:48;;;;;;;2.77;1.80;;;15.30;99.90;;;;;;4995183;28;20214;-28
2023/10/16 12:59:13;;;;;;;2.47;1.70;;;15.30;99.90;;;;;;4984694;28;20301;-28
2023/10/16 13:01:40;;;;;;;2.17;1.97;;;15.50;99.90;;;;;;4989464;28;20279;-27
2023/10/16 13:04:15;;;;;;;1.67;1.37;;;15.50;99.90;;;;;;4999408;28;20257;-27
2023/10/16 13:06:43;;;;;;;2.37;1.50;;;15.70;99.90;;;;;;4976405;28;20183;-28
2023/10/16 13:09:16;;;;;;;4.40;1.80;;;15.70;99.90;;;;;;4999996;28;20273;-27
2023/10/16 13:11:46;;;;;;;2.60;1.53;;;15.50;99.90;;;;;;5003144;28;20226;-28
2023/10/16 13:14:12;;;;;;;3.00;1.40;;;15.40;99.90;;;;;;5007107;28;20176;-27
2023/10/16 13:16:39;;;;;;;3.50;1.70;;;15.50;99.90;;;;;;4986742;28;20211;-27
2023/10/16 13:19:09;;;;;;;3.13;1.57;;;15.40;99.90;;;;;;5000800;28;20265;-27
2023/10/16 13:21:38;;;;;;;1.17;1.07;;;15.60;99.90;;;;;;4994078;28;20207;-27
2023/10/16 13:24:13;;;;;;;2.53;1.40;;;15.60;99.90;;;;;;4989812;28;20180;-28
2023/10/16 13:26:40;;;;;;;1.30;1.17;;;15.90;99.90;;;;;;4994108;28;20183;-28
2023/10/16 13:29:11;;;;;;;2.77;1.50;;;16.10;99.90;;;;;;4981392;28;20231;-27
2023/10/16 13:31:40;;;;;;;2.07;1.30;;;16.10;99.90;;;;;;4980834;28;20188;-27
2023/10/16 13:34:11;;;;;;;1.20;1.10;;;16.20;99.90;;;;;;4997641;28;20226;-28
2023/10/16 13:36:42;;;;;;;2.23;1.20;;;16.20;99.90;;;;;;4997351;28;20303;-28
2023/10/16 13:39:09;;;;;;;1.30;1.00;;;16.30;99.90;;;;;;4996957;28;20218;-28
2023/10/16 13:41:51;;;;;;;1.10;1.00;;;16.40;99.90;;;;;;4990890;28;20648;-27
2023/10/16 13:44:37;;;;;;;1.43;1.03;;;16.30;99.90;;;;;;4997187;28;20184;-27
2023/10/16 13:47:08;;;;;;;3.07;1.27;;;16.10;99.90;;;;;;4986200;28;20196;-27
2023/10/16 13:49:38;;;;;;;1.27;1.03;;;16.10;99.90;;;;;;5002321;28;20211;-28
2023/10/16 13:52:07;;;;;;;1.40;1.00;;;16.20;99.90;;;;;;4997679;28;20184;-28
2023/10/16 13:54:40;;;;;;;2.87;0.90;;;16.40;99.90;;;;;;4994061;28;20304;-27
2023/10/16 13:57:07;;;;;;;2.30;0.90;;;16.50;99.90;;;;;;5004972;28;20210;-27
2023/10/16 13:59:33;;;;;;;1.50;1.00;;;16.60;99.90;;;;;;5003117;28;20196;-28
2023/10/16 14:02:01;;;;;;;2.40;0.90;;;16.20;99.90;;;;;;5016887;28;20307;-27
2023/10/16 14:04:33;;;;;;;1.43;1.10;;;16.10;99.90;;;;;;4999102;28;20190;-27
2023/10/16 14:06:59;;;;;;;1.30;1.00;;;16.20;99.90;;;;;;5005884;28;20264;-28
2023/10/16 14:09:28;;;;;;;2.57;1.13;;;16.30;99.90;;;;;;4997731;28;20219;-28
2023/10/16 14:11:59;;;;;;;1.95;1.20;;;16.40;99.90;;;;;;4990754;28;20184;-27
2023/10/16 14:14:30;;;;;;;1.52;0.88;;;16.60;99.90;;;;;;4973568;28;20191;-27
2023/10/16 14:17:03;;;;;;;1.10;1.00;;;16.40;99.90;;;;;;4987940;28;20234;-28
2023/10/16 14:19:31;;;;;;;2.10;1.07;;;16.30;99.90;;;;;;4990211;28;20204;-27
2023/10/16 14:21:59;;;;;;;2.40;0.97;;;16.00;99.90;;;;;;4986753;28;20187;-29
2023/10/16 14:24:26;;;;;;;3.13;0.90;;;15.90;99.90;;;;;;4988139;28;20620;-28
2023/10/16 14:26:55;;;;;;;1.25;0.98;;;16.10;99.90;;;;;;4971517;28;20314;-27
2023/10/16 14:29:22;;;;;;;1.23;0.97;;;16.10;99.90;;;;;;4991078;28;20215;-27